Wilmot, South Dakota
Current Conditions -  °F | °C
As of 5:54 AM on Friday 19 Dec 2014 (Local Time) from KVVV Reporting Station
Haze Haze  
Wind Chill: 18°   Ceiling: 1000
Heat Index: 25°   Visibility: 5mi
Dew Point: 21°   Wind: 6mph
Humidity: 86%   Direction: 150°SSE
Pressure: 30.13"   Gusts: NA
Location:  45.41°N, 96.86°W
Report Text: KVVV 191154Z AUTO 15005KT 5SM BR OVC010 M04/M06 A3013 RMK AO2
Loading
Personal Weather Stations






























Interactive Weather Map New forecast layout! Learn more

10-Day Weather Forecast

Advertisements
Track Severe Weather on mobile